Misc. Local Product


228 
AXUS44 KLUB 192028
MISWTM
METAR KAD1 192020Z 24010KT 19/02 A3017 RMK A01 SLP162 T01910023 RH 32%=
METAR KAHS 192020Z 03002KT 21/02 A3015 RMK A01 SLP192 T02110023 RH 28%=
METAR KAI1 192020Z 33006KT 20/00 A3017 RMK A01 SLP185 T02020006 RH 27%=
METAR KAM1 192020Z 24007KT 18/03 A3017 RMK A01 SLP179 T01880034 RH 36%=
METAR KAM2 192020Z 32007KT 18/02 A3015 RMK A01 SLP180 T01890020 RH 32%=
METAR KAM3 192020Z 33005KT 19/02 A3016 RMK A01 SLP179 T01930027 RH 32%=
METAR KAMH 192020Z 26005KT 21/M00 A3017 RMK A01 SLP173 T02111005 RH 23%=
METAR KANS 192020Z 04003KT 20/M01 A3020 RMK A01 SLP192 T02071015 RH 22%=
METAR KAOS 192020Z 27007KT 21/M01 A3016 RMK A01 SLP177 T02141013 RH 21%=
METAR KARS 192020Z 30009KT 20/00 A3017 RMK A01 SLP181 T02060007 RH 26%=
METAR KASR 192020Z 34010KT 20/04 A3014 RMK A01 SLP197 T02010046 RH 36%=
METAR KASU 192020Z 33010KT 23/00 A3015 RMK A01 SLP195 T02300000 RH 21%=
METAR KBI1 192020Z 29005KT 21/02 A3019 RMK A01 SLP196 T02120025 RH 29%=
METAR KBO1 192020Z 22009KT 19/02 A3020 RMK A01 SLP164 T01940028 RH 33%=
METAR KBR1 192020Z 18005KT 20/01 A3015 RMK A01 SLP160 T02040019 RH 29%=
METAR KBWS 192020Z 27003KT 20/M00 A3018 RMK A01 SLP183 T02081005 RH 24%=
METAR KBY1 192020Z 22005KT 20/03 A3015 RMK A01 SLP178 T02040035 RH 32%=
METAR KCA1 192020Z 33013KT 19/M00 A3011 RMK A01 SLP180 T01961003 RH 25%=
METAR KCA2 192020Z 20000KT 31/00 A3008 RMK A01 SLP160 T03110005 RH 14%=
METAR KCES 192020Z 30010KT 19/00 A3014 RMK A01 SLP185 T01950004 RH 28%=
METAR KCH1 192020Z 01001KT 21/02 A3015 RMK A01 SLP196 T02120023 RH 28%=
METAR KCL1 192020Z 25009KT 18/01 A3016 RMK A01 SLP178 T01890011 RH 30%=
METAR KCL2 192020Z 35015KT 18/02 A3015 RMK A01 SLP198 T01880024 RH 33%=
METAR KCO1 192020Z 10003KT 23/00 A3018 RMK A01 SLP195 T02310000 RH 21%=
METAR KCO2 192020Z 33010KT 21/01 A3017 RMK A01 SLP200 T02190011 RH 25%=
METAR KCR1 192020Z 35015KT 20/02 A3013 RMK A01 SLP195 T02030022 RH 30%=
METAR KCR2 192020Z 07002KT 22/01 A3018 RMK A01 SLP195 T02210010 RH 24%=
METAR KCXS 192020Z 34013KT 21/00 A3012 RMK A01 SLP188 T02130008 RH 25%=
METAR KDC1 192020Z 13003KT 24/00 A3018 RMK A01 SLP169 T02410006 RH 21%=
METAR KDMS 192020Z 24009KT 19/02 A3017 RMK A01 SLP172 T01900022 RH 33%=
METAR KDO1 192020Z 35008KT 20/00 A3014 RMK A01 SLP189 T02010002 RH 26%=
METAR KDR1 192020Z 22006KT 21/M02 A3019 RMK A01 SLP159 T02191027 RH 19%=
METAR KDVS 192020Z 21007KT 20/M02 A3019 RMK A01 SLP179 T02061029 RH 20%=
METAR KEA1 192020Z 24010KT 21/00 A3017 RMK A01 SLP174 T02150004 RH 24%=
METAR KEN1 192020Z 26006KT 21/01 A3015 RMK A01 SLP161 T02100012 RH 26%=
METAR KES1 192020Z 31009KT 22/00 A3012 RMK A01 SLP189 T02220003 RH 23%=
METAR KFAS 192020Z 25007KT 19/01 A3018 RMK A01 SLP171 T01970019 RH 31%=
METAR KFL1 192020Z 27009KT 20/M03 A3028 RMK A01 SLP058 T02071037 RH 18%=
METAR KFLS 192020Z 33011KT 21/M01 A3015 RMK A01 SLP181 T02151011 RH 22%=
METAR KFR1 192020Z 30006KT 20/00 A3015 RMK A01 SLP178 T02010008 RH 27%=
METAR KFVS 192020Z 31009KT 19/M00 A3017 RMK A01 SLP191 T01991000 RH 26%=
METAR KGDS 192020Z 33014KT 21/M00 A3011 RMK A01 SLP190 T02141001 RH 24%=
METAR KGGS 192020Z 32006KT 20/01 A3016 RMK A01 SLP193 T02040016 RH 29%=
METAR KGHS 192020Z 28005KT 19/00 A3017 RMK A01 SLP188 T01980008 RH 28%=
METAR KGO1 192020Z 33010KT 19/01 A3016 RMK A01 SLP185 T01960018 RH 30%=
METAR KGU1 192020Z 17001KT 18/M01 A3026 RMK A01 SLP134 T01871014 RH 25%=
METAR KHA1 192020Z 36009KT 19/02 A3013 RMK A01 SLP195 T01960027 RH 33%=
METAR KHA2 192020Z 31012KT 19/02 A3017 RMK A01 SLP176 T01960025 RH 32%=
METAR KHA3 192020Z 33015KT 21/01 A3013 RMK A01 SLP194 T02100017 RH 27%=
METAR KHES 192020Z 25006KT 18/04 A3016 RMK A01 SLP170 T01870040 RH 38%=
METAR KHO1 192020Z 13007KT 20/M03 A3022 RMK A01 SLP187 T02091033 RH 19%=
METAR KHRS 192020Z 24005KT 19/01 A3017 RMK A01 SLP178 T01940012 RH 29%=
METAR KJTS 192020Z 31008KT 20/03 A3014 RMK A01 SLP193 T02070033 RH 32%=
METAR KJU1 192020Z 34009KT 23/03 A3014 RMK A01 SLP197 T02320038 RH 28%=
METAR KKN1 192020Z 34010KT 21/02 A3013 RMK A01 SLP197 T02110027 RH 30%=
METAR KLA1 192020Z 27002KT 24/00 A3015 RMK A01 SLP190 T02420007 RH 21%=
METAR KLBW 192020Z 29005KT 21/M00 A3017 RMK A01 SLP181 T02131003 RH 23%=
METAR KLD1 192020Z 24003KT 20/M00 A3018 RMK A01 SLP181 T02011007 RH 24%=
METAR KLE1 192020Z 35004KT 22/00 A3012 RMK A01 SLP185 T02240002 RH 22%=
METAR KLES 192020Z 29001KT 19/00 A3019 RMK A01 SLP195 T01970004 RH 27%=
METAR KLO1 192020Z 11002KT 20/M00 A3019 RMK A01 SLP200 T02081003 RH 24%=
METAR KMC1 192020Z 32011KT 22/02 A3016 RMK A01 SLP196 T02280029 RH 27%=
METAR KMC4 192020Z 27001KT 22/00 A3018 RMK A01 SLP196 T02240001 RH 22%=
METAR KMC5 192020Z 28011KT 18/M00 A3015 RMK A01 SLP180 T01881001 RH 27%=
METAR KMCS 192020Z 34011KT 18/01 A3013 RMK A01 SLP178 T01870010 RH 31%=
METAR KMD1 192020Z 34013KT 21/03 A3015 RMK A01 SLP199 T02130039 RH 31%=
METAR KME1 192020Z 36003KT 22/04 A3017 RMK A01 SLP200 T02240040 RH 29%=
METAR KMES 192020Z 33011KT 21/M00 A3013 RMK A01 SLP188 T02121004 RH 23%=
METAR KMNS 192020Z 20003KT 21/M02 A3018 RMK A01 SLP174 T02131028 RH 19%=
METAR KMUS 192020Z 25004KT 21/00 A3017 RMK A01 SLP173 T02130003 RH 24%=
METAR KNH1 192020Z 30008KT 20/02 A3018 RMK A01 SLP185 T02050020 RH 29%=
METAR KNOR 192020Z 33012KT 22/M01 A3013 RMK A01 SLP188 T02231013 RH 20%=
METAR KOD1 192020Z 32012KT 19/03 A3013 RMK A01 SLP198 T01950030 RH 33%=
METAR KOES 192020Z 01008KT 20/M01 A3018 RMK A01 SLP189 T02061013 RH 22%=
METAR KONS 192020Z 30008KT 20/M00 A3016 RMK A01 SLP175 T02031005 RH 24%=
METAR KPA1 192020Z 31008KT 18/00 A3017 RMK A01 SLP180 T01800009 RH 31%=
METAR KPAD 192020Z 35008KT 21/01 A3013 RMK A01 SLP189 T02120018 RH 28%=
METAR KPD1 192020Z 32006KT 19/03 A3018 RMK A01 SLP178 T01980033 RH 33%=
METAR KPD2 192020Z 29007KT 21/02 A3014 RMK A01 SLP182 T02170028 RH 28%=
METAR KPD3 192020Z 31007KT 21/00 A3014 RMK A01 SLP185 T02170004 RH 24%=
METAR KPD4 192020Z 24007KT 20/M01 A3012 RMK A01 SLP174 T02081014 RH 22%=
METAR KPFS 192020Z 34008KT 21/02 A3013 RMK A01 SLP191 T02100027 RH 30%=
METAR KPG1 192020Z 07003KT 24/M01 A3016 RMK A01 SLP177 T02411015 RH 18%=
METAR KPMS 192020Z 26006KT 17/M00 A3014 RMK A01 SLP178 T01791005 RH 28%=
METAR KPPS 192020Z 24003KT 20/M01 A3019 RMK A01 SLP180 T02051012 RH 23%=
METAR KPT1 192020Z 31006KT 21/00 A3016 RMK A01 SLP190 T02150003 RH 24%=
METAR KPVS 192020Z 29008KT 20/01 A3015 RMK A01 SLP174 T02090012 RH 27%=
METAR KQU1 192020Z 35005KT 21/M00 A3014 RMK A01 SLP180 T02131004 RH 23%=
METAR KREE 192020Z 26009KT 21/M00 A3016 RMK A01 SLP179 T02121001 RH 24%=
METAR KRLS 192020Z 29005KT 20/00 A3017 RMK A01 SLP184 T02020005 RH 27%=
METAR KRO1 192020Z 33011KT 20/01 A3015 RMK A01 SLP195 T02080018 RH 28%=
METAR KRRS 192020Z 36005KT 20/01 A3014 RMK A01 SLP182 T02000019 RH 30%=
METAR KSB1 192020Z 11009KT 25/M01 A3020 RMK A01 SLP145 T02541014 RH 16%=
METAR KSC1 192020Z 31008KT 21/02 A3018 RMK A01 SLP202 T02140026 RH 28%=
METAR KSDS 192020Z 25006KT 21/M01 A3018 RMK A01 SLP178 T02141018 RH 21%=
METAR KSE1 192020Z 31010KT 19/03 A3013 RMK A01 SLP198 T01940031 RH 34%=
METAR KSE2 192020Z 33009KT 22/01 A3016 RMK A01 SLP193 T02250016 RH 25%=
METAR KSGV 192020Z 08003KT 20/00 A3019 RMK A01 SLP188 T02030000 RH 25%=
METAR KSLS 192020Z 32007KT 20/01 A3017 RMK A01 SLP186 T02040015 RH 28%=
METAR KSM1 192020Z 16005KT 20/M00 A3019 RMK A01 SLP187 T02031005 RH 24%=
METAR KSP1 192020Z 34007KT 21/M01 A3013 RMK A01 SLP186 T02131013 RH 22%=
METAR KSP2 192020Z 31008KT 20/01 A3015 RMK A01 SLP181 T02060014 RH 27%=
METAR KST1 192020Z 33005KT 21/01 A3019 RMK A01 SLP198 T02110019 RH 28%=
METAR KST2 192020Z 34005KT 19/03 A3014 RMK A01 SLP199 T01980032 RH 33%=
METAR KST3 192020Z 24006KT 19/00 A3015 RMK A01 SLP179 T01910002 RH 28%=
METAR KSVS 192020Z 31010KT 20/M01 A3015 RMK A01 SLP180 T02071013 RH 22%=
METAR KSW1 192020Z 35012KT 19/01 A3017 RMK A01 SLP197 T01980019 RH 30%=
METAR KSYS 192020Z 36007KT 20/02 A3016 RMK A01 SLP191 T02090025 RH 30%=
METAR KTA1 192020Z 29007KT 20/00 A3019 RMK A01 SLP194 T02090005 RH 25%=
METAR KTAS 192020Z 34003KT 20/01 A3017 RMK A01 SLP187 T02030015 RH 28%=
METAR KTAT 192020Z 20006KT 22/M02 A3020 RMK A01 SLP173 T02211020 RH 19%=
METAR KTH1 192020Z 32009KT 18/04 A3014 RMK A01 SLP201 T01890040 RH 37%=
METAR KTIS 192020Z 32009KT 20/01 A3016 RMK A01 SLP178 T02000010 RH 28%=
METAR KTUR 192020Z 28010KT 21/M01 A3012 RMK A01 SLP181 T02151011 RH 22%=
METAR KUM1 192020Z 28008KT 17/05 A3018 RMK A01 SLP178 T01790057 RH 44%=
METAR KVA1 192020Z 33000KT 24/M02 A3019 RMK A01 SLP159 T02471022 RH 16%=
METAR KVP1 192020Z 26003KT 19/01 A3016 RMK A01 SLP183 T01970014 RH 29%=
METAR KWA1 192020Z 36012KT 23/00 A3016 RMK A01 SLP199 T02360009 RH 22%=
METAR KWE1 192020Z 32005KT 20/02 A3013 RMK A01 SLP197 T02020021 RH 30%=
METAR KWE2 192020Z 29000KT 20/00 A3020 RMK A01 SLP193 T02040003 RH 26%=
METAR KWOS 192020Z 30006KT 20/M00 A3017 RMK A01 SLP182 T02061007 RH 23%=
METAR KWT1 192020Z 36008KT 20/02 A3016 RMK A01 SLP195 T02050025 RH 30%=
METAR KWVS 192020Z 31007KT 21/00 A3014 RMK A01 SLP184 T02140002 RH 24%=
$$